Nearby METAR Reports

 

KSNK - Snyder/Winston, Texas, USA
Distance from station: SSE 25mi, 41km
Updated: Sat, 05-Dec-2020 5:35am CST
Clear
Clear
 Wind from calm
Wind: Calm
Temperature: 32°F , 0°C
Dew Point: 23°F , -5°C
Humidity: 69%
Barometer: 30.25 inHg , 1024.4 hPa
Clouds: Clear
Visibility: 10 miles , 16 km
2020/12/05 11:35 KSNK 051135Z AUTO 00000KT 10SM CLR 00/M05 A3025 RMK AO2 T10011055
KSWW - Sweetwater, Texas, USA
Distance from station: SE 56mi, 90km
Updated: Sat, 05-Dec-2020 5:35am CST
Clear
Clear
 Wind from SW
Wind: SW 8 mph , 13 km/h
Temperature: 41°F , 5°C
Wind Chill: 36°F , 2°C
Dew Point: 23°F , -5°C
Humidity: 49%
Barometer: 30.26 inHg , 1024.7 hPa
Clouds: Clear
Visibility: 10 miles , 16 km
2020/12/05 11:35 KSWW 051135Z AUTO 23007KT 10SM CLR 05/M05 A3026 RMK AO2 T00451053
 
KLBB - Lubbock, Texas, USA
Distance from station: NW 59mi, 94km
Updated: Sat, 05-Dec-2020 4:53am CST
Few Clouds
Few Clouds
 Wind from WSW
Wind: WSW 6 mph , 9 km/h
Temperature: 27°F , -3°C
Wind Chill: 20°F , -7°C
Dew Point: 18°F , -8°C
Humidity: 69%
Barometer: 30.23 inHg , 1023.7 hPa
Clouds: Few Clouds
Visibility: 10 miles , 16 km
Cloud details: Few Clouds 25000 ft
2020/12/05 10:53 KLBB 051053Z 25005KT 10SM FEW250 M03/M08 A3023 RMK AO2 SLP233 T10281083
KPVW - Plainview, Texas, USA
Distance from station: NNW 85mi, 137km
Updated: Sat, 05-Dec-2020 5:35am CST
Clear
Clear
 Wind from NNW
Wind: NNW 7 mph , 11 km/h
Temperature: 28°F , -2°C
Wind Chill: 21°F , -6°C
Dew Point: 21°F , -6°C
Humidity: 74%
Barometer: 30.23 inHg , 1023.7 hPa
Clouds: Clear
Visibility: 10 miles , 16 km
2020/12/05 11:35 KPVW 051135Z AUTO 33006KT 10SM CLR M02/M06 A3023 RMK AO2 T10251060
 
KDYS - Dyess Afb/Abilen, Texas, USA
Distance from station: ESE 88mi, 141km
Updated: Sat, 05-Dec-2020 4:56am CST
Clear
Clear
 Wind from calm
Wind: Calm
Temperature: 30°F , -1°C
Dew Point: 23°F , -5°C
Humidity: 75%
Barometer: 30.23 inHg , 1023.7 hPa
Clouds: Clear
Visibility: 10 miles , 16 km
2020/12/05 10:56 KDYS 051056Z AUTO 00000KT 10SM CLR M01/M05 A3023 RMK AO2 SLP240 T10131055
KGNC - Seminole, Texas, USA
Distance from station: WSW 89mi, 144km
Updated: Sat, 05-Dec-2020 5:35am CST
Clear
Clear
 Wind from NW
Wind: NW 5 mph , 7 km/h
Temperature: 30°F , -1°C
Wind Chill: 25°F , -4°C
Dew Point: 7°F , -14°C
Humidity: 37%
Barometer: 30.28 inHg , 1025.4 hPa
Clouds: Clear
Visibility: 10 miles , 16 km
2020/12/05 11:35 KGNC 051135Z AUTO 32004KT 10SM CLR M01/M14 A3028 RMK AO2 T10151141
 
KE11 - Andrews, Texas, USA
Distance from station: WSW 93mi, 149km
Updated: Sat, 05-Dec-2020 5:35am CST
Clear
Clear
 Wind from NNW
Wind: NNW 6 mph , 9 km/h
Temperature: 30°F , -1°C
Wind Chill: 24°F , -4°C
Dew Point: 7°F , -14°C
Humidity: 37%
Barometer: 30.26 inHg , 1024.7 hPa
Clouds: Clear
Visibility: 10 miles , 16 km
2020/12/05 11:35 KE11 051135Z AUTO 33005KT 10SM CLR M01/M14 A3026 RMK AO2 T10061145
KABI - Abilene, Texas, USA
Distance from station: ESE 96mi, 154km
Updated: Sat, 05-Dec-2020 4:52am CST
Clear
Clear
 Wind from S
Wind: S 3 mph , 6 km/h
Temperature: 34°F , 1°C
Dew Point: 25°F , -4°C
Humidity: 70%
Barometer: 30.25 inHg , 1024.4 hPa
Clouds: Clear
Visibility: 10 miles , 16 km
2020/12/05 10:52 KABI 051052Z 18003KT 10SM CLR 01/M04 A3025 RMK AO2 SLP241 T00061039
 
KMAF - Midland, Texas, USA
Distance from station: SW 96mi, 154km
Updated: Sat, 05-Dec-2020 4:53am CST
Overcast
Overcast
 Wind from N
Wind: N 3 mph , 6 km/h
Temperature: 34°F , 1°C
Dew Point: 18°F , -8°C
Humidity: 51%
Barometer: 30.23 inHg , 1023.7 hPa
Clouds: Overcast
Visibility: 10 miles , 16 km
Cloud details: Overcast 11000 ft
2020/12/05 10:53 KMAF 051053Z AUTO 35003KT 10SM OVC110 01/M08 A3023 RMK AO2 SLP228 T00111078
KCDS - Childress, Texas, USA
Distance from station: NNE 110mi, 177km
Updated: Sat, 05-Dec-2020 4:53am CST
Clear
Clear
 Wind from NNW
Wind: NNW 8 mph , 13 km/h
Temperature: 34°F , 1°C
Wind Chill: 27°F , -3°C
Dew Point: 25°F , -4°C
Humidity: 70%
Barometer: 30.23 inHg , 1023.7 hPa
Clouds: Clear
Visibility: 10 miles , 16 km
2020/12/05 10:53 KCDS 051053Z AUTO 34007KT 10SM CLR 01/M04 A3023 RMK AO2 SLP237 T00061044
 
KSJT - San Angelo, Texas, USA
Distance from station: SSE 121mi, 194km
Updated: Sat, 05-Dec-2020 4:51am CST
Clear
Clear
 Wind from NW
Wind: NW 5 mph , 7 km/h
Temperature: 37°F , 3°C
Wind Chill: 33°F , 1°C
Dew Point: 27°F , -3°C
Humidity: 65%
Barometer: 30.23 inHg , 1023.7 hPa
Clouds: Clear
Visibility: 10 miles , 16 km
2020/12/05 10:51 KSJT 051051Z AUTO 31004KT 10SM CLR 03/M03 A3023 RMK AO2 SLP239 T00281028
KHOB - Hobbs/Lea Co., New Mexico, USA
Distance from station: WSW 122mi, 196km
Updated: Sat, 05-Dec-2020 5:35am CST
Few Clouds
Few Clouds
 Wind from NNW
Wind: NNW 9 mph , 15 km/h
Temperature: 28°F , -2°C
Wind Chill: 19°F , -7°C
Dew Point: -0°F , -18°C
Humidity: 29%
Barometer: 30.25 inHg , 1024.4 hPa
Clouds: Few Clouds
Visibility: 10 miles , 16 km
Cloud details: Few Clouds 3000 ft
2020/12/05 11:35 KHOB 051135Z AUTO 34008KT 10SM FEW030 M02/M18 A3025 RMK AO2
 
KCOM - Coleman Muni, Texas, USA
Distance from station: SE 131mi, 212km
Updated: Sat, 05-Dec-2020 5:35am CST

 Wind from calm
Wind: Calm
Temperature: 36°F , 2°C
Dew Point: 25°F , -4°C
Humidity: 65%
Barometer: 30.24 inHg , 1024 hPa
Visibility: 10 miles , 16 km
2020/12/05 11:35 KCOM 051135Z AUTO 00000KT 10SM 02/M04 A3024 RMK AO2 T00231037
KBKD - Breckenridge, Texas, USA
Distance from station: E 134mi, 215km
Updated: Sat, 05-Dec-2020 5:35am CST
Clear
Clear
 Wind from calm
Wind: Calm
Temperature: 30°F , -1°C
Dew Point: 25°F , -4°C
Humidity: 80%
Barometer: 30.25 inHg , 1024.4 hPa
Clouds: Clear
Visibility: 10 miles , 16 km
2020/12/05 11:35 KBKD 051135Z AUTO 00000KT 10SM CLR M01/M04 A3025 RMK AO2 T10101036
 
KF05 - Vernon Wilbarger, Texas, USA
Distance from station: NE 137mi, 220km
Updated: Sat, 05-Dec-2020 5:35am CST
Clear
Clear
 Wind from SW
Wind: SW 6 mph , 9 km/h
Temperature: 32°F , 0°C
Wind Chill: 26°F , -3°C
Dew Point: 28°F , -2°C
Humidity: 87%
Barometer: 30.25 inHg , 1024.4 hPa
Clouds: Clear
Visibility: 10 miles , 16 km
2020/12/05 11:35 KF05 051135Z AUTO 23005KT 10SM CLR 00/M02 A3025 RMK AO2 T00001023